createdAt,value
2023-03-23T00:01:12.496Z,1001.71
2023-03-23T00:05:08.567Z,1001.57
2023-03-23T00:10:08.939Z,1001.57
2023-03-23T00:15:08.112Z,1001.49
2023-03-23T00:20:08.130Z,1001.67
2023-03-23T00:25:08.307Z,1001.67
2023-03-23T00:30:08.505Z,1001.46
2023-03-23T00:35:08.567Z,1001.44
2023-03-23T00:40:08.632Z,1001.38
2023-03-23T00:45:08.657Z,1001.38
2023-03-23T00:50:08.718Z,1001.38
2023-03-23T00:55:08.798Z,1001.21
2023-03-23T01:00:08.888Z,1001.38
2023-03-23T01:05:08.984Z,1001.38
2023-03-23T01:10:08.072Z,1001.35
2023-03-23T01:15:08.136Z,1001.28
2023-03-23T01:20:08.218Z,1001.17
2023-03-23T01:25:08.254Z,1001.19
2023-03-23T01:30:08.608Z,1000.97
2023-03-23T01:35:08.641Z,1001.1
2023-03-23T01:40:08.720Z,1001.0
2023-03-23T01:45:18.958Z,1001.12
2023-03-23T01:50:08.065Z,1001.2
2023-03-23T01:55:08.131Z,1001.09
2023-03-23T02:00:08.714Z,1000.84
2023-03-23T02:05:08.903Z,1001.08
2023-03-23T02:10:09.012Z,1000.53
2023-03-23T02:15:08.152Z,1000.29
2023-03-23T02:20:08.211Z,1000.12
2023-03-23T02:25:08.327Z,1000.08
2023-03-23T02:30:08.465Z,1000.33
2023-03-23T02:35:08.685Z,1000.27
2023-03-23T02:40:08.781Z,1000.13
2023-03-23T02:45:08.852Z,1000.12
2023-03-23T02:50:08.907Z,999.97
2023-03-23T02:55:08.947Z,999.97
2023-03-23T03:00:08.024Z,1000.02
2023-03-23T03:05:08.069Z,1000.04
2023-03-23T03:10:08.291Z,1000.07
2023-03-23T03:15:08.340Z,1000.11
2023-03-23T03:20:08.588Z,1000.06
2023-03-23T03:25:18.212Z,999.98
2023-03-23T03:30:08.862Z,1000.06
2023-03-23T03:35:08.926Z,1000.0
2023-03-23T03:40:09.065Z,1000.04
2023-03-23T03:45:08.553Z,1000.08
2023-03-23T03:50:08.333Z,999.97
2023-03-23T03:55:08.328Z,999.94
2023-03-23T04:00:08.605Z,1000.02
2023-03-23T04:05:08.904Z,1000.04
2023-03-23T04:10:08.028Z,999.96
2023-03-23T04:15:08.529Z,999.96
2023-03-23T04:20:08.124Z,999.93
2023-03-23T04:25:08.154Z,999.91
2023-03-23T04:30:08.236Z,999.91
2023-03-23T04:35:12.427Z,999.94
2023-03-23T04:40:08.203Z,1000.15
2023-03-23T04:45:08.222Z,1000.14
2023-03-23T04:50:08.263Z,1000.13
2023-03-23T04:55:08.297Z,1000.14
2023-03-23T05:00:08.342Z,1000.14
2023-03-23T05:05:02.543Z,1000.21
2023-03-23T05:10:02.726Z,1000.35
2023-03-23T05:15:03.008Z,1000.4
2023-03-23T05:20:02.288Z,1000.44
2023-03-23T05:25:02.580Z,1000.39
2023-03-23T05:30:02.857Z,1000.42
2023-03-23T05:35:03.117Z,1000.52
2023-03-23T05:40:02.399Z,1000.46
2023-03-23T05:45:02.780Z,1000.49
2023-03-23T05:50:02.992Z,1000.49
2023-03-23T05:55:02.171Z,1000.54
2023-03-23T06:00:02.403Z,1000.6
2023-03-23T06:05:02.647Z,1000.56
2023-03-23T06:10:02.830Z,1000.56
2023-03-23T06:15:03.207Z,1000.46
2023-03-23T06:20:02.436Z,1000.7
2023-03-23T06:25:02.854Z,1000.67
2023-03-23T06:30:03.217Z,1000.67
2023-03-23T06:35:02.545Z,1000.56
2023-03-23T06:40:02.806Z,1000.77
2023-03-23T06:45:02.990Z,1000.79
2023-03-23T06:50:02.189Z,1000.84
2023-03-23T06:55:02.429Z,1000.81
2023-03-23T07:00:02.578Z,1000.88
2023-03-23T07:05:02.764Z,1000.97
2023-03-23T07:10:02.956Z,1000.97
2023-03-23T07:15:02.167Z,1001.14
2023-03-23T07:20:02.367Z,1001.07
2023-03-23T07:25:02.507Z,1001.2
2023-03-23T07:30:02.833Z,1001.2
2023-03-23T07:35:03.162Z,1001.07
2023-03-23T07:40:02.547Z,1001.16
2023-03-23T07:45:02.844Z,1001.23
2023-03-23T07:50:03.045Z,1001.23
2023-03-23T07:55:02.387Z,1001.33
2023-03-23T08:00:02.639Z,1001.4
2023-03-23T08:05:03.007Z,1001.29
2023-03-23T08:10:02.296Z,1001.29
2023-03-23T08:15:02.550Z,1001.47
2023-03-23T08:20:09.469Z,1001.46
2023-03-23T08:25:03.736Z,1001.45
2023-03-23T08:30:02.977Z,1001.45
2023-03-23T08:35:02.260Z,1001.63
2023-03-23T08:40:02.632Z,1001.63
2023-03-23T08:45:02.948Z,1001.68
2023-03-23T08:50:02.140Z,1001.56
2023-03-23T08:55:02.285Z,1001.63
2023-03-23T09:00:02.400Z,1001.84
2023-03-23T09:05:02.563Z,1001.84
2023-03-23T09:10:02.853Z,1001.84
2023-03-23T09:15:03.103Z,1002.04
2023-03-23T09:20:02.390Z,1002.06
2023-03-23T09:25:02.601Z,1002.18
2023-03-23T09:30:02.781Z,1002.14
2023-03-23T09:35:02.969Z,1002.14
2023-03-23T09:40:06.796Z,1002.11
2023-03-23T09:45:02.311Z,1002.32
2023-03-23T09:50:02.479Z,1002.38
2023-03-23T09:55:02.618Z,1002.45
2023-03-23T10:00:04.907Z,1002.41
2023-03-23T10:05:03.093Z,1002.01
2023-03-23T10:10:02.334Z,1002.22
2023-03-23T10:15:02.547Z,1002.08
2023-03-23T10:20:02.741Z,1002.25
2023-03-23T10:25:02.929Z,1002.53
2023-03-23T10:30:02.172Z,1002.49
2023-03-23T10:35:02.462Z,1002.6
2023-03-23T10:40:02.803Z,1002.6
2023-03-23T10:45:02.981Z,1002.6
2023-03-23T10:50:02.383Z,1002.61
2023-03-23T10:55:02.595Z,1002.61
2023-03-23T11:00:02.813Z,1002.56
2023-03-23T11:05:09.156Z,1002.58
2023-03-23T11:10:03.066Z,1002.52
2023-03-23T11:15:02.321Z,1002.52
2023-03-23T11:20:02.510Z,1002.82
2023-03-23T11:25:02.692Z,1002.82
2023-03-23T11:30:02.848Z,1002.69
2023-03-23T11:35:15.559Z,1002.64
2023-03-23T11:40:02.149Z,1002.76
2023-03-23T11:45:02.574Z,1002.72
2023-03-23T11:50:02.717Z,1002.72
2023-03-23T11:55:02.845Z,1002.77
2023-03-23T12:00:03.242Z,1002.85
2023-03-23T12:05:02.414Z,1002.81
2023-03-23T12:10:06.400Z,1002.76
2023-03-23T12:15:02.763Z,1002.94
2023-03-23T12:20:02.964Z,1003.06
2023-03-23T12:25:02.151Z,1003.05
2023-03-23T12:30:02.322Z,1003.05
2023-03-23T12:35:02.562Z,1003.05
2023-03-23T12:40:02.777Z,1002.83
2023-03-23T12:45:12.922Z,1002.72
2023-03-23T12:50:03.110Z,1002.79
2023-03-23T12:55:02.295Z,1002.85
2023-03-23T13:00:02.509Z,1002.77
2023-03-23T13:05:02.776Z,1002.58
2023-03-23T13:10:03.817Z,1002.54
2023-03-23T13:15:02.578Z,1002.45
2023-03-23T13:20:02.847Z,1002.33
2023-03-23T13:25:03.034Z,1002.24
2023-03-23T13:30:02.264Z,1002.03
2023-03-23T13:35:03.699Z,1002.13
2023-03-23T13:40:12.988Z,1002.19
2023-03-23T13:45:02.436Z,1002.2
2023-03-23T13:50:02.593Z,1002.44
2023-03-23T13:55:02.786Z,1002.32
2023-03-23T14:00:02.989Z,1002.49
2023-03-23T14:05:02.148Z,1002.34
2023-03-23T14:10:02.322Z,1002.34
2023-03-23T14:15:02.506Z,1002.34
2023-03-23T14:20:02.704Z,1002.34
2023-03-23T14:25:02.816Z,1002.19
2023-03-23T14:30:03.069Z,1002.12
2023-03-23T14:35:02.291Z,1002.14
2023-03-23T14:40:02.444Z,1002.44
2023-03-23T14:45:02.615Z,1002.23
2023-03-23T14:50:02.814Z,1002.09
2023-03-23T14:55:03.036Z,1002.23
2023-03-23T15:00:02.246Z,1002.49
2023-03-23T15:05:02.614Z,1003.16
2023-03-23T15:10:02.803Z,1002.88
2023-03-23T15:15:03.017Z,1002.36
2023-03-23T15:20:09.243Z,1002.19
2023-03-23T15:25:11.766Z,1002.25
2023-03-23T15:30:02.909Z,1001.92
2023-03-23T15:35:04.478Z,1001.9
2023-03-23T15:40:02.957Z,1002.12
2023-03-23T15:45:02.123Z,1001.96
2023-03-23T15:50:02.433Z,1001.96
2023-03-23T15:55:02.699Z,1001.96
2023-03-23T16:00:02.970Z,1001.96
2023-03-23T16:05:02.164Z,1001.77
2023-03-23T16:10:02.425Z,1001.7
2023-03-23T16:15:02.617Z,1001.77
2023-03-23T16:20:02.950Z,1001.92
2023-03-23T16:25:02.205Z,1002.04
2023-03-23T16:30:04.287Z,1002.04
2023-03-23T16:35:02.815Z,1001.81
2023-03-23T16:40:02.932Z,1001.7
2023-03-23T16:45:02.037Z,1001.97
2023-03-23T16:50:02.147Z,1001.97
2023-03-23T16:55:02.268Z,1002.02
2023-03-23T17:00:02.777Z,1001.92
2023-03-23T17:05:02.909Z,1002.17
2023-03-23T17:10:02.989Z,1002.17
2023-03-23T17:15:02.254Z,1002.1
2023-03-23T17:20:02.671Z,1002.1
2023-03-23T17:25:02.839Z,1002.19
2023-03-23T17:30:03.048Z,1002.19
2023-03-23T17:35:02.281Z,1002.02
2023-03-23T17:40:02.578Z,1001.96
2023-03-23T17:45:03.572Z,1001.96
2023-03-23T17:50:11.380Z,1001.96
2023-03-23T17:55:03.307Z,1001.96
2023-03-23T18:00:02.843Z,1001.96
2023-03-23T18:05:03.281Z,1002.0
2023-03-23T18:10:02.515Z,1001.92
2023-03-23T18:15:02.827Z,1001.84
2023-03-23T18:20:03.103Z,1001.84
2023-03-23T18:25:02.308Z,1001.71
2023-03-23T18:30:02.778Z,1001.65
2023-03-23T18:35:03.236Z,1001.65
2023-03-23T18:40:03.526Z,1001.69
2023-03-23T18:45:02.885Z,1001.66
2023-03-23T18:50:02.722Z,1001.51
2023-03-23T18:55:03.118Z,1001.4
2023-03-23T19:00:02.426Z,1001.34
2023-03-23T19:05:02.836Z,1001.2
2023-03-23T19:10:03.448Z,1001.24
2023-03-23T19:15:03.506Z,1001.24
2023-03-23T19:20:03.036Z,1001.24
2023-03-23T19:25:02.400Z,1001.24
2023-03-23T19:30:02.644Z,1001.06
2023-03-23T19:35:04.022Z,1001.07
2023-03-23T19:40:12.638Z,1000.94
2023-03-23T19:45:03.449Z,1000.94
2023-03-23T19:50:02.703Z,1000.83
2023-03-23T19:55:03.874Z,1000.79
2023-03-23T20:00:03.910Z,1000.78
2023-03-23T20:05:03.275Z,1000.72
2023-03-23T20:10:02.959Z,1000.58
2023-03-23T20:15:02.198Z,1000.55
2023-03-23T20:20:02.469Z,1000.51
2023-03-23T20:25:02.615Z,1000.4
2023-03-23T20:30:04.249Z,1000.36
2023-03-23T20:35:05.737Z,1000.32
2023-03-23T20:40:07.663Z,1000.28
2023-03-23T20:45:04.212Z,1000.3
2023-03-23T20:50:02.916Z,1000.25
2023-03-23T20:55:02.842Z,1000.21
2023-03-23T21:00:03.074Z,1000.12
2023-03-23T21:05:03.565Z,1000.12
2023-03-23T21:10:02.832Z,1000.2
2023-03-23T21:15:03.259Z,1000.2
2023-03-23T21:20:02.584Z,1000.1
2023-03-23T21:25:03.073Z,1000.11
2023-03-23T21:30:02.629Z,1000.09
2023-03-23T21:35:02.871Z,1000.09
2023-03-23T21:40:03.071Z,1000.08
2023-03-23T21:45:02.305Z,999.93
2023-03-23T21:50:02.472Z,999.94
2023-03-23T21:55:03.275Z,999.85
2023-03-23T22:00:02.338Z,999.83
2023-03-23T22:05:15.365Z,999.77
2023-03-23T22:10:08.434Z,999.65
2023-03-23T22:15:08.508Z,999.67
2023-03-23T22:20:08.599Z,999.53
2023-03-23T22:25:08.633Z,999.44
2023-03-23T22:30:08.748Z,999.44
2023-03-23T22:35:08.820Z,999.31
2023-03-23T22:40:08.863Z,999.22
2023-03-23T22:45:08.906Z,999.18
2023-03-23T22:50:08.944Z,999.1
2023-03-23T22:55:08.066Z,999.04
2023-03-23T23:00:08.140Z,999.01
2023-03-23T23:05:08.186Z,998.96
2023-03-23T23:10:08.259Z,998.82
2023-03-23T23:15:08.296Z,998.82
2023-03-23T23:20:08.377Z,998.7
2023-03-23T23:25:08.540Z,998.56
2023-03-23T23:30:08.570Z,998.48
2023-03-23T23:35:08.693Z,998.43
2023-03-23T23:40:08.786Z,998.3
2023-03-23T23:45:08.899Z,998.37
2023-03-23T23:50:08.968Z,998.22
2023-03-23T23:55:08.010Z,998.29
